KGPIKSZT

Guest
Details From KGPI - GLACIER PARK INTL
To KSZT - Sandpoint
Flight Number -
Tags generated
Created
Modified
Stats Distance 96 nm / 178 km
Max Altitude 5,500 ft / 1,676 m
Waypoints 3
Social Downloads 1
Likes 0
Share VATSIM

Download

Looking for another format? Having issues loading an existing format? Contact us
Advertisement - Login to hide

Notes

Basic altitude profile: - Ascent Rate: 2500ft/min - Ascent Speed: 250kts - Cruise Altitude: 35000ft - Cruise Speed: 420kts - Descent Rate: 1500ft/min - Descent Speed: 250kts Options: - Use NATs: yes - Use PACOTS: yes - Use low airways: yes - Use high airways: yes

Route

KGPI KILLY KSZT

ID Type Via Altitude Latitude Longitude Leg Dist Tot Dist Heading (true) Name
O KGPI APT - 0 ft / 0 m 48.31172˚ -114.25512˚ - 0 nm - GLACIER PARK INTL
KILLY FIX - 5,500 ft / 1,676 m 48.14872˚ -114.55443˚ 15 nm 15 nm 231° / 231° -
O KSZT APT - 0 ft / 0 m 48.29954˚ -116.56014˚ 80 nm 96 nm 277° / 276° Sandpoint

Altitude Profile

Advertisement - Login to hide

KGPI

Details ICAO KGPI
Name GLACIER PARK INTL
Region United States
Timezone America/Denver (UTC-7.0)
Stats Elevation 2,977 ft / 907 m (AMSL)
Location 48.311718° -114.255121°
Runways 2
Magnetic Variation 13.630° E

METAR

KGPI 161055Z AUTO 00000KT 6SM BR SCT039 OVC049 M03/M03 A3000 RMK AO2 SLP190 T10331033

Decode

TAF

TAF KGPI 160520Z 1606/1706 VRB03KT 5SM BR OVC007 FM161200 21005KT 2SM -SHSN BR SCT007 BKN015 OVC035 FM161500 20005KT 4SM BR VCSH BKN015 FM161800 22005KT 6SM BR OVC050

Decode

Departure Runways

ID Width Length Bearing (true) Bearing (mag) Surface Threshold Offset Overrun Length
02 150 ft / 46 m 9,023 ft / 2,750 m 34.81° 21.18° Asphalt 0 ft / 0 m 0 ft / 0 m
12 75 ft / 23 m 3,507 ft / 1,069 m 136.32° 122.69° Asphalt 0 ft / 0 m 650 ft / 198 m
20 150 ft / 46 m 9,023 ft / 2,750 m 214.83° 201.20° Asphalt 0 ft / 0 m 171 ft / 52 m
30 75 ft / 23 m 3,507 ft / 1,069 m 316.32° 302.69° Asphalt 0 ft / 0 m 541 ft / 165 m

KSZT

Details ICAO KSZT
Name Sandpoint
Region United States
Timezone America/Los_Angeles (UTC-8.0)
Stats Elevation 2,131 ft / 650 m (AMSL)
Location 48.299545° -116.560135°
Runways 1
Magnetic Variation 14.436° E

METAR

KSZT 161135Z AUTO 00000KT 10SM BKN012 OVC019 M02/M03 A3013 RMK AO2

Decode

TAF

Not found

Destination Runways

ID Width Length Bearing (true) Bearing (mag) Surface Threshold Offset Overrun Length
01 75 ft / 23 m 5,496 ft / 1,675 m 32.04° 17.60° Asphalt 0 ft / 0 m 0 ft / 0 m
19 75 ft / 23 m 5,496 ft / 1,675 m 212.05° 197.61° Asphalt 0 ft / 0 m 0 ft / 0 m

Approach Navaids

Runway Type Ident Frequency Range Bearing (true) Bearing (mag) Slope Elevation
01 Localiser RPO 109.10 MHz 18 nm / 33 km 32.05° 17.61° - 2,131 ft / 650 m (AMSL)